createdAt,value
2023-04-10T04:50:00.748Z,5107.5
2023-04-10T04:51:00.505Z,5498.9
2023-04-10T04:52:05.507Z,5890.4
2023-04-10T04:53:00.510Z,6362.0
2023-04-10T04:54:00.518Z,6833.6
2023-04-10T04:55:00.724Z,7385.7
2023-04-10T04:56:00.518Z,7937.9
2023-04-10T04:57:00.498Z,8490.0
2023-04-10T04:58:00.512Z,9113.2
2023-04-10T04:59:00.528Z,9736.4
2023-04-10T05:02:00.584Z,11734.8
2023-04-10T05:03:00.610Z,12384.1
2023-04-10T05:04:00.583Z,13033.5
2023-04-10T05:05:00.725Z,13619.1
2023-04-10T05:06:00.528Z,14204.8
2023-04-10T05:07:00.503Z,14790.5
2023-04-10T05:08:00.557Z,15297.1
2023-04-10T05:09:00.529Z,15803.8
2023-04-10T05:10:00.745Z,16245.5
2023-04-10T05:11:00.504Z,16687.3
2023-04-10T05:12:00.520Z,17129.0
2023-04-10T05:13:00.501Z,17555.8
2023-04-10T05:14:00.537Z,17982.6
2023-04-10T05:17:02.261Z,19420.4
2023-04-10T05:18:00.525Z,20021.1
2023-04-10T05:19:00.606Z,20621.7
2023-04-10T05:22:00.605Z,23061.9
2023-04-10T05:23:00.503Z,23971.7
2023-04-10T05:24:00.549Z,24881.4
2023-04-10T05:25:15.541Z,25916.0
2023-04-10T05:26:00.635Z,26950.6
2023-04-10T05:27:00.517Z,27985.2
2023-04-10T05:28:00.520Z,29119.7
2023-04-10T05:29:00.604Z,30254.3
2023-04-10T05:30:01.189Z,31529.2
2023-04-10T05:31:00.741Z,32804.1
2023-04-10T05:32:00.597Z,34079.1
2023-04-10T05:33:00.579Z,35394.6
2023-04-10T05:34:00.596Z,36710.1
2023-04-10T05:36:00.743Z,39314.9
2023-04-10T05:37:00.610Z,40617.3
2023-04-10T05:38:00.633Z,42008.5
2023-04-10T05:39:00.618Z,43399.6
2023-04-10T05:40:01.076Z,44809.5
2023-04-10T05:41:02.473Z,46219.3
2023-04-10T05:42:00.516Z,47629.2
2023-04-10T05:43:00.510Z,48993.3
2023-04-10T05:44:00.564Z,50357.5
2023-04-10T05:46:15.603Z,52765.5
2023-04-10T05:47:00.738Z,53969.5
2023-04-10T05:48:00.534Z,55049.0
2023-04-10T05:49:00.563Z,56128.5
2023-04-10T08:15:02.709Z,65535.0
2023-04-10T09:00:23.231Z,65535.0
2023-04-10T10:00:03.406Z,65535.0
2023-04-10T10:30:29.192Z,65535.0
2023-04-10T10:45:01.528Z,65535.0
2023-04-10T11:00:04.509Z,65535.0
2023-04-10T11:30:01.340Z,65535.0
2023-04-10T12:00:04.647Z,65535.0
2023-04-10T13:15:01.532Z,65535.0
2023-04-10T15:15:02.569Z,65535.0
2023-04-10T16:06:01.230Z,65156.2
2023-04-10T16:07:00.705Z,64777.4
2023-04-10T16:08:00.696Z,63812.0
2023-04-10T16:09:00.668Z,62846.6
2023-04-10T16:10:01.312Z,61881.2
2023-04-10T16:11:00.914Z,60628.3
2023-04-10T16:13:00.769Z,58108.9
2023-04-10T16:14:00.662Z,56842.5
2023-04-10T16:15:01.292Z,55576.1
2023-04-10T16:16:01.321Z,54325.6
2023-04-10T16:17:00.669Z,53075.1
2023-04-10T16:18:00.710Z,51846.5
2023-04-10T16:19:01.842Z,50618.0
2023-04-10T16:20:01.493Z,49389.5
2023-04-10T16:21:00.907Z,48432.4
2023-04-10T16:22:00.678Z,47475.3
2023-04-10T16:23:00.674Z,47028.8
2023-04-10T16:24:00.669Z,46582.3
2023-04-10T16:25:01.312Z,46135.7
2023-04-10T16:26:00.909Z,46070.3
2023-04-10T16:27:00.663Z,46004.9
2023-04-10T16:28:00.662Z,46224.9
2023-04-10T16:29:00.684Z,46444.8
2023-04-10T16:30:01.224Z,46664.7
2023-04-10T16:31:01.007Z,47061.3
2023-04-10T16:32:00.699Z,47457.9
2023-04-10T16:33:00.696Z,47853.3
2023-04-10T16:34:00.671Z,48248.7
2023-04-10T16:35:01.299Z,48644.1
2023-04-10T16:36:02.400Z,48964.1
2023-04-10T16:37:00.694Z,49284.0
2023-04-10T16:38:00.732Z,49418.2
2023-04-10T16:39:00.693Z,49552.4
2023-04-10T16:40:01.728Z,49686.6
2023-04-10T16:41:00.958Z,49368.4
2023-04-10T16:42:00.714Z,49050.2
2023-04-10T16:43:00.671Z,48211.9
2023-04-10T16:44:00.669Z,47373.7
2023-04-10T16:45:01.246Z,46535.4
2023-04-10T16:46:01.724Z,45423.4
2023-04-10T16:47:00.947Z,44311.4
2023-04-10T16:48:00.801Z,43103.0
2023-04-10T16:49:00.678Z,41894.6
2023-04-10T16:50:01.552Z,40686.2
2023-04-10T16:51:01.912Z,39549.6
2023-04-10T16:52:00.708Z,38413.0
2023-04-10T16:53:00.752Z,37377.8
2023-04-10T16:54:00.678Z,36342.6
2023-04-10T16:55:00.707Z,35307.4
2023-04-10T16:56:15.716Z,34487.7
2023-04-10T16:57:01.590Z,33667.9
2023-04-10T16:58:00.702Z,32953.8
2023-04-10T16:59:00.682Z,32239.7
2023-04-10T17:26:00.893Z,17451.0
2023-04-10T17:27:00.874Z,17556.7
2023-04-10T17:28:00.892Z,17346.0
2023-04-10T17:29:00.941Z,17219.6
2023-04-10T17:30:31.410Z,17135.3
2023-04-10T17:31:01.459Z,16737.0
2023-04-10T17:32:00.906Z,16438.3
2023-04-10T17:33:00.899Z,15942.8
2023-04-10T17:55:01.158Z,7213.0
2023-04-10T17:57:00.219Z,6891.7
2023-04-10T17:58:00.253Z,6621.0
2023-04-10T17:59:00.208Z,6458.6
2023-04-10T18:02:00.253Z,5895.5
2023-04-10T18:03:00.300Z,5608.2
2023-04-10T18:04:01.301Z,5378.4
2023-04-10T18:05:00.441Z,5190.4
2023-04-10T18:06:00.217Z,4957.5
2023-04-10T18:07:00.218Z,4760.5
2023-04-10T18:08:00.243Z,4548.2
2023-04-10T18:09:00.222Z,4364.3
2023-04-10T18:12:00.221Z,3292.0
2023-04-10T18:13:00.237Z,2979.5
2023-04-10T18:14:00.229Z,2667.1
2023-04-10T18:15:01.057Z,2354.6
2023-04-10T18:17:00.298Z,1866.2
2023-04-10T18:18:00.286Z,1687.9
2023-04-10T18:19:00.225Z,1509.5
2023-04-10T18:20:01.003Z,1331.2
2023-04-10T18:22:00.229Z,1072.1
2023-04-10T18:23:00.500Z,974.1
2023-04-10T18:24:00.215Z,876.0
2023-04-10T18:25:01.341Z,777.9
2023-04-10T18:26:00.216Z,699.5
2023-04-10T18:27:00.253Z,621.1
2023-04-10T18:29:00.226Z,492.9
2023-04-10T18:30:01.108Z,428.7
2023-04-10T18:32:00.225Z,327.8
2023-04-10T18:33:00.322Z,290.6
2023-04-10T18:34:07.528Z,253.4
2023-04-10T18:35:00.443Z,216.2
2023-04-10T18:36:11.535Z,189.6
2023-04-10T18:38:13.113Z,144.4
2023-04-10T18:39:10.691Z,125.8
2023-04-10T18:40:27.228Z,107.2
2023-04-10T18:41:27.142Z,93.9
2023-04-10T18:42:26.287Z,80.7
2023-04-10T18:45:19.621Z,52.3
2023-04-10T18:48:17.124Z,34.7
2023-04-10T18:49:18.028Z,30.1
2023-04-10T18:50:17.318Z,25.6
2023-04-10T18:51:10.678Z,22.4
2023-04-10T18:53:27.122Z,16.9
2023-04-10T18:54:02.078Z,14.5
2023-04-10T18:55:00.886Z,12.2
2023-04-10T18:57:00.216Z,9.0
2023-04-10T18:58:00.274Z,7.9
2023-04-10T18:59:00.223Z,6.9
2023-04-10T19:00:01.695Z,5.8
2023-04-10T19:02:00.291Z,4.2
2023-04-10T19:03:00.347Z,3.7
2023-04-10T19:04:00.558Z,3.1
2023-04-10T19:05:01.043Z,2.6
2023-04-10T19:07:00.248Z,1.8
2023-04-10T19:08:09.603Z,1.5
2023-04-10T19:09:10.056Z,1.3
2023-04-10T19:10:57.764Z,1.0
2023-04-10T19:11:09.097Z,0.9
2023-04-10T19:12:13.993Z,0.7
2023-04-10T19:13:56.276Z,0.6
2023-04-10T19:14:07.777Z,0.5
2023-04-10T19:17:41.824Z,0.2
2023-04-10T19:19:37.914Z,0.1
